Time;durP1;ratioP1;P1;durP2;ratioP2;P2;SDS_P1;SDS_P2;PMS_P1;PMS_P2;Temp;Humidity;BMP_temperature;BMP_pressure;BME280_temperature;BME280_humidity;BME280_pressure;Samples;Min_cycle;Max_cycle;Signal;HPM_P1;HPM_P2
2022/10/03 00:02:15;;;;;;;1.08;0.50;;;;;;;10.61;100.00;98892.00;5050432;28;20044;-60
2022/10/03 00:05:24;;;;;;;0.65;0.40;;;;;;;10.55;100.00;98893.25;5035885;28;20059;-60
2022/10/03 00:08:24;;;;;;;2.10;0.40;;;;;;;10.50;100.00;98892.72;5053190;28;20514;-60
2022/10/03 00:11:30;;;;;;;0.60;0.20;;;;;;;10.50;100.00;98904.97;5047625;28;20075;-60
2022/10/03 00:14:26;;;;;;;0.90;0.52;;;;;;;10.38;100.00;98903.97;5040987;28;20474;-60
2022/10/03 00:17:19;;;;;;;1.33;0.50;;;;;;;10.32;100.00;98895.56;5093836;28;20539;-59
2022/10/03 00:20:29;;;;;;;2.05;0.40;;;;;;;10.31;100.00;98900.91;5105765;28;20684;-58
2022/10/03 00:23:17;;;;;;;1.00;0.47;;;;;;;10.27;100.00;98895.03;5109811;27;20028;-60
2022/10/03 00:26:26;;;;;;;0.90;0.60;;;;;;;10.27;100.00;98895.03;5111436;28;20530;-59
2022/10/03 00:29:38;;;;;;;1.70;0.40;;;;;;;10.33;100.00;98892.00;5111441;27;20043;-60
2022/10/03 00:32:42;;;;;;;0.68;0.47;;;;;;;10.27;100.00;98897.66;5090528;28;20036;-61
2022/10/03 00:35:40;;;;;;;0.70;0.52;;;;;;;10.18;100.00;98901.72;5093719;28;20074;-60
2022/10/03 00:39:05;;;;;;;2.47;0.70;;;;;;;10.15;100.00;98901.91;5109796;28;20032;-60
2022/10/03 00:42:01;;;;;;;1.63;0.55;;;;;;;10.13;100.00;98905.56;5111894;28;20130;-61
2022/10/03 00:45:07;;;;;;;1.48;0.70;;;;;;;10.13;100.00;98905.56;5121925;28;20066;-60
2022/10/03 00:48:19;;;;;;;1.33;0.50;;;;;;;10.07;100.00;98902.41;5113499;28;20039;-61
2022/10/03 00:51:28;;;;;;;2.83;0.55;;;;;;;10.08;100.00;98898.84;5103727;28;20173;-60
2022/10/03 00:54:27;;;;;;;2.05;0.40;;;;;;;10.07;100.00;98905.00;5108594;28;20057;-60
2022/10/03 00:57:21;;;;;;;1.15;0.50;;;;;;;10.12;100.00;98909.94;5105175;28;20127;-60
2022/10/03 01:00:23;;;;;;;2.15;0.40;;;;;;;10.12;100.00;98912.56;5127701;27;20031;-60
2022/10/03 01:03:37;;;;;;;1.13;0.60;;;;;;;10.09;100.00;98918.84;5115274;28;20118;-60
2022/10/03 01:06:35;;;;;;;1.73;0.52;;;;;;;10.00;100.00;98922.06;5007372;28;20129;-60
2022/10/03 01:09:33;;;;;;;3.03;0.77;;;;;;;9.93;100.00;98920.75;5019483;28;21232;-60
2022/10/03 01:12:47;;;;;;;2.80;0.80;;;;;;;9.90;100.00;98913.09;5022985;28;20053;-60
2022/10/03 01:15:56;;;;;;;1.50;0.68;;;;;;;9.88;100.00;98917.59;4991178;28;20101;-61
2022/10/03 01:19:07;;;;;;;2.97;0.80;;;;;;;9.84;100.00;98909.13;4994276;28;20041;-60
2022/10/03 01:22:20;;;;;;;2.75;0.60;;;;;;;9.90;100.00;98916.56;4978447;28;20839;-60
2022/10/03 01:25:48;;;;;;;2.30;0.90;;;;;;;9.87;100.00;98903.69;4993393;28;20473;-59
2022/10/03 01:32:37;;;;;;;1.05;0.63;;;;;;;10.06;100.00;98902.50;4892493;29;20048;-60
2022/10/03 01:35:40;;;;;;;2.92;0.90;;;;;;;10.06;100.00;98908.59;4899728;29;20156;-60
2022/10/03 01:38:47;;;;;;;1.25;0.60;;;;;;;10.18;100.00;98906.13;4895197;29;20050;-59
2022/10/03 01:41:44;;;;;;;1.90;0.90;;;;;;;10.08;100.00;98901.47;4910809;28;20102;-59
2022/10/03 01:44:51;;;;;;;2.75;0.85;;;;;;;10.08;100.00;98898.00;4958906;28;20051;-60
2022/10/03 01:47:46;;;;;;;1.55;0.65;;;;;;;10.08;100.00;98888.38;4954331;28;20210;-59
2022/10/03 01:50:56;;;;;;;1.33;0.70;;;;;;;10.13;100.00;98888.09;4942520;28;20499;-58
2022/10/03 01:53:46;;;;;;;1.88;1.02;;;;;;;10.19;100.00;98890.31;4996017;28;20625;-59
2022/10/03 01:56:44;;;;;;;1.42;0.70;;;;;;;10.27;100.00;98891.56;4999966;28;20061;-60
2022/10/03 01:59:41;;;;;;;2.00;0.80;;;;;;;10.23;100.00;98881.28;4989175;28;20068;-60
2022/10/03 02:02:42;;;;;;;4.03;0.93;;;;;;;10.26;100.00;98884.66;5046458;28;20052;-58
2022/10/03 02:06:00;;;;;;;2.50;1.15;;;;;;;10.23;100.00;98890.94;5045081;28;20064;-60
2022/10/03 02:08:51;;;;;;;1.23;0.70;;;;;;;10.14;100.00;98899.38;5108825;27;20070;-59
2022/10/03 02:11:49;;;;;;;2.83;0.80;;;;;;;10.08;100.00;98898.00;5123839;27;20065;-60
2022/10/03 02:14:55;;;;;;;3.95;0.88;;;;;;;10.06;100.00;98907.72;5117210;27;20042;-59
2022/10/03 02:17:53;;;;;;;3.85;0.95;;;;;;;10.03;100.00;98921.88;5117313;27;20064;-59
2022/10/03 02:20:49;;;;;;;2.05;0.90;;;;;;;10.06;100.00;98926.91;5111915;27;20058;-60
2022/10/03 02:23:35;;;;;;;1.42;0.80;;;;;;;10.12;100.00;98924.84;5117925;27;20042;-59
2022/10/03 02:26:56;;;;;;;2.63;0.75;;;;;;;10.13;100.00;98921.28;5099623;27;20380;-60
2022/10/03 02:29:41;;;;;;;;;;;;;;;10.02;100.00;98924.59;5104604;27;20480;-59
2022/10/03 02:32:31;;;;;;;2.10;0.88;;;;;;;10.03;100.00;98918.41;5126518;27;19972;-59
2022/10/03 02:36:01;;;;;;;3.75;0.80;;;;;;;10.10;100.00;98919.69;5095815;28;20122;-59
2022/10/03 02:38:51;;;;;;;4.10;1.00;;;;;;;10.10;100.00;98923.13;5116737;27;20493;-59
2022/10/03 02:42:03;;;;;;;1.92;0.80;;;;;;;10.05;100.00;98922.63;5106541;27;20050;-60
2022/10/03 02:45:02;;;;;;;2.88;0.90;;;;;;;10.10;100.00;98932.78;5109823;27;20039;-58
2022/10/03 02:47:49;;;;;;;2.78;0.80;;;;;;;10.05;100.00;98930.47;5121426;27;20456;-59
2022/10/03 02:50:46;;;;;;;5.25;1.10;;;;;;;9.96;100.00;98942.34;5115584;27;20091;-59
2022/10/03 02:53:50;;;;;;;2.47;0.80;;;;;;;9.84;100.00;98940.53;5123421;27;20119;-59
2022/10/03 02:57:03;;;;;;;3.72;1.10;;;;;;;9.85;100.00;98932.56;5094081;28;20070;-59
2022/10/03 03:00:06;;;;;;;3.63;1.00;;;;;;;9.82;100.00;98937.16;5096854;27;20060;-59
2022/10/03 03:03:23;;;;;;;4.07;1.05;;;;;;;9.77;100.00;98939.22;5112263;27;20130;-59
2022/10/03 03:06:19;;;;;;;1.63;0.88;;;;;;;9.70;100.00;98931.75;5116215;27;20036;-59
2022/10/03 03:09:28;;;;;;;2.40;0.98;;;;;;;9.72;100.00;98939.50;5105060;27;20395;-59
2022/10/03 03:12:50;;;;;;;1.80;0.95;;;;;;;9.71;100.00;98949.13;5100084;27;20043;-58
2022/10/03 03:16:17;;;;;;;3.42;0.88;;;;;;;9.65;100.00;98948.66;5107515;27;20042;-61
2022/10/03 03:19:29;;;;;;;4.00;1.05;;;;;;;9.63;100.00;98956.59;5100091;27;20366;-58
2022/10/03 03:22:45;;;;;;;2.70;0.95;;;;;;;9.58;100.00;98958.69;5105906;27;20080;-60
2022/10/03 03:25:43;;;;;;;2.47;1.00;;;;;;;9.64;100.00;98949.59;5093996;27;20040;-60
2022/10/03 03:28:47;;;;;;;1.85;1.00;;;;;;;9.72;100.00;98960.44;5116457;27;20156;-58
2022/10/03 03:31:45;;;;;;;3.05;1.05;;;;;;;9.81;100.00;98951.19;5094419;27;20103;-61
2022/10/03 03:34:39;;;;;;;2.15;0.80;;;;;;;9.90;100.00;98958.44;5112233;27;20047;-61
2022/10/03 03:37:40;;;;;;;2.15;1.10;;;;;;;9.82;100.00;98956.31;5107719;27;20075;-60
2022/10/03 03:40:33;;;;;;;3.78;1.15;;;;;;;9.81;100.00;98969.50;5109646;27;20058;-59
2022/10/03 03:43:33;;;;;;;3.78;1.45;;;;;;;9.79;100.00;98979.22;5118687;27;20050;-60
2022/10/03 03:46:51;;;;;;;2.05;0.93;;;;;;;9.83;100.00;98975.44;5107947;27;20447;-58
2022/10/03 03:50:13;;;;;;;5.65;1.20;;;;;;;9.82;100.00;98968.56;5122599;27;20062;-59
2022/10/03 03:53:31;;;;;;;2.75;0.85;;;;;;;9.84;100.00;98985.00;5120052;27;20027;-59
2022/10/03 03:56:33;;;;;;;2.08;1.17;;;;;;;9.81;100.00;98979.97;5115951;27;20069;-60
2022/10/03 03:59:43;;;;;;;2.72;1.30;;;;;;;9.83;100.00;98984.16;5120117;27;20043;-59
2022/10/03 04:02:51;;;;;;;1.60;1.00;;;;;;;9.80;100.00;98986.13;5110235;27;20475;-61
2022/10/03 04:06:04;;;;;;;3.35;1.30;;;;;;;9.77;100.00;98984.53;5113920;27;20466;-59
2022/10/03 04:09:08;;;;;;;2.55;1.10;;;;;;;9.73;100.00;98983.88;5114771;27;20054;-61
2022/10/03 04:12:06;;;;;;;1.70;0.90;;;;;;;9.71;100.00;98977.88;5102246;28;20093;-59
2022/10/03 04:14:57;;;;;;;7.38;1.20;;;;;;;9.72;100.00;98970.91;5098641;28;20115;-58
2022/10/03 04:21:11;;;;;;;1.90;1.10;;;;;;;9.58;100.00;98979.59;5104515;27;20076;-60
2022/10/03 04:24:51;;;;;;;3.10;1.08;;;;;;;9.52;100.00;98974.72;5108139;27;20123;-59
2022/10/03 04:28:06;;;;;;;2.92;1.08;;;;;;;9.55;100.00;98978.00;5036494;28;20151;-59
2022/10/03 04:31:05;;;;;;;11.27;1.30;;;;;;;9.53;100.00;98968.56;5048989;28;20163;-60
2022/10/03 04:34:10;;;;;;;3.45;1.33;;;;;;;9.53;100.00;98972.00;5026082;28;20061;-60
2022/10/03 04:37:10;;;;;;;4.25;1.50;;;;;;;9.61;100.00;98956.69;5036723;28;20124;-60
2022/10/03 04:40:16;;;;;;;1.52;0.90;;;;;;;9.69;100.00;98968.47;5053874;28;20044;-61
2022/10/03 04:43:14;;;;;;;3.47;1.48;;;;;;;9.72;100.00;98970.91;5043079;28;20057;-59
2022/10/03 04:46:15;;;;;;;2.92;1.38;;;;;;;9.71;100.00;98954.34;5040071;28;20123;-59
2022/10/03 04:49:13;;;;;;;4.85;1.80;;;;;;;10.23;100.00;98983.41;5039024;28;20102;-60
2022/10/03 04:52:11;;;;;;;5.72;2.30;;;;;;;9.96;100.00;98970.28;5041911;28;20049;-60
2022/10/03 04:55:03;;;;;;;6.22;2.05;;;;;;;9.90;100.00;98974.16;5046982;28;20115;-59
2022/10/03 04:58:06;;;;;;;6.22;1.60;;;;;;;9.85;100.00;98974.44;5064416;28;20193;-58
2022/10/03 05:01:05;;;;;;;5.20;1.40;;;;;;;9.82;100.00;98984.25;5114621;27;20134;-61
2022/10/03 05:04:14;;;;;;;3.53;1.30;;;;;;;9.80;100.00;98978.25;5100741;27;20177;-60
2022/10/03 05:07:20;;;;;;;2.85;1.10;;;;;;;9.75;100.00;98996.88;5103667;27;20048;-59
2022/10/03 05:10:25;;;;;;;6.00;1.63;;;;;;;9.82;100.00;98998.19;5088233;27;20134;-59
2022/10/03 05:13:31;;;;;;;3.25;1.33;;;;;;;9.80;100.00;98986.13;5112761;27;20036;-59
2022/10/03 05:16:35;;;;;;;6.93;1.50;;;;;;;9.90;100.00;98994.22;5094724;28;20123;-59
2022/10/03 05:19:35;;;;;;;3.67;1.48;;;;;;;9.88;100.00;98999.56;5105086;28;20048;-60
2022/10/03 05:22:39;;;;;;;2.55;1.30;;;;;;;10.01;100.00;98999.63;5107846;27;20040;-58
2022/10/03 05:25:53;;;;;;;3.33;1.27;;;;;;;10.07;100.00;99004.47;5104631;27;20121;-60
2022/10/03 05:28:49;;;;;;;2.20;1.15;;;;;;;10.03;100.00;99015.25;5113019;27;20068;-60
2022/10/03 05:31:45;;;;;;;2.78;1.25;;;;;;;10.11;100.00;99007.75;5119198;27;20056;-60
2022/10/03 05:35:06;;;;;;;2.63;1.08;;;;;;;10.17;100.00;99012.59;5116181;27;20054;-60
2022/10/03 05:38:05;;;;;;;4.60;1.43;;;;;;;10.29;100.00;99016.22;5102440;27;20075;-59
2022/10/03 05:41:01;;;;;;;3.63;1.13;;;;;;;10.44;99.23;99021.44;5117267;27;20430;-58
2022/10/03 05:44:02;;;;;;;5.10;1.40;;;;;;;10.35;99.35;99021.06;5107270;27;20044;-59
2022/10/03 05:50:40;;;;;;;1.70;1.00;;;;;;;10.21;100.00;99042.06;5031893;28;19921;-60
2022/10/03 05:53:47;;;;;;;3.38;1.23;;;;;;;10.20;100.00;99040.38;5037154;28;20492;-59
2022/10/03 05:56:34;;;;;;;1.88;1.10;;;;;;;10.15;100.00;99034.59;5042598;28;20052;-61
2022/10/03 05:59:41;;;;;;;4.57;1.30;;;;;;;9.96;100.00;99036.56;5042877;28;20126;-59
2022/10/03 06:02:35;;;;;;;4.22;1.40;;;;;;;10.00;100.00;99037.22;5032656;28;20508;-60
2022/10/03 06:05:31;;;;;;;3.25;1.15;;;;;;;10.01;100.00;99044.13;5032669;28;20033;-59
2022/10/03 06:08:40;;;;;;;2.15;1.35;;;;;;;10.19;100.00;99049.16;5028085;28;20055;-60
2022/10/03 06:11:55;;;;;;;4.00;1.52;;;;;;;10.29;99.69;99055.50;5028255;28;20160;-60
2022/10/03 06:15:02;;;;;;;3.85;1.20;;;;;;;10.20;99.88;99045.63;5029369;28;20104;-59
2022/10/03 06:18:13;;;;;;;2.72;1.08;;;;;;;10.22;99.14;99049.81;5028876;28;20050;-59
2022/10/03 06:21:35;;;;;;;4.45;1.00;;;;;;;10.34;98.45;99045.59;5010811;28;20184;-59
2022/10/03 06:24:41;;;;;;;5.00;1.10;;;;;;;10.47;97.42;99053.53;5029819;28;20191;-59
2022/10/03 06:28:03;;;;;;;3.03;1.13;;;;;;;10.44;96.70;99051.09;5084260;28;20048;-59
2022/10/03 06:31:26;;;;;;;;;;;;;;;10.54;96.45;99053.16;5106893;27;20034;-59
2022/10/03 06:34:25;;;;;;;4.20;1.05;;;;;;;10.67;95.00;99054.06;5027907;28;20357;-60
2022/10/03 06:37:22;;;;;;;3.00;1.00;;;;;;;10.76;94.22;99064.84;5004922;28;20045;-60
2022/10/03 06:40:15;;;;;;;4.95;1.00;;;;;;;11.07;90.94;99052.38;5022724;28;20046;-59
2022/10/03 06:43:09;;;;;;;3.58;0.90;;;;;;;11.85;87.54;99060.28;5029355;28;20041;-59
2022/10/03 06:46:21;;;;;;;2.28;0.90;;;;;;;11.95;86.38;99061.34;5024937;28;20542;-59
2022/10/03 06:49:30;;;;;;;3.90;0.90;;;;;;;11.94;86.77;99053.56;5025502;28;20301;-60
2022/10/03 06:52:35;;;;;;;2.50;0.73;;;;;;;12.41;83.55;99055.59;5029322;28;20061;-60
2022/10/03 06:55:29;;;;;;;4.57;1.13;;;;;;;12.68;82.55;99067.72;5024070;28;20065;-60
2022/10/03 06:58:16;;;;;;;3.03;0.90;;;;;;;12.67;81.79;99044.97;5014139;28;20068;-60
2022/10/03 07:01:17;;;;;;;5.03;0.98;;;;;;;12.70;81.66;99047.38;5013308;28;20505;-56
2022/10/03 07:04:23;;;;;;;5.72;1.45;;;;;;;12.76;80.27;99067.13;5042428;28;20568;-59
2022/10/03 07:07:19;;;;;;;3.83;0.75;;;;;;;13.00;78.78;99059.25;5096589;28;20145;-54
2022/10/03 07:10:22;;;;;;;3.53;1.10;;;;;;;13.69;79.92;99069.97;5101860;28;20127;-50
2022/10/03 07:13:20;;;;;;;3.55;0.63;;;;;;;12.83;77.68;99078.06;5105838;27;20466;-54
2022/10/03 07:16:29;;;;;;;2.78;0.90;;;;;;;12.50;80.04;99068.06;5092391;28;20040;-57
2022/10/03 07:19:56;;;;;;;4.72;0.80;;;;;;;12.36;80.37;99063.81;5097138;27;20153;-54
2022/10/03 07:23:15;;;;;;;3.65;0.98;;;;;;;12.36;79.97;99070.84;5040210;28;20522;-56
2022/10/03 07:26:21;;;;;;;4.78;1.10;;;;;;;12.36;79.72;99066.44;4997161;28;20046;-56
2022/10/03 07:29:37;;;;;;;4.38;0.90;;;;;;;12.63;78.56;99059.31;4980940;28;20076;-56
2022/10/03 07:32:59;;;;;;;9.65;1.83;;;;;;;12.30;79.37;99053.75;4994415;28;20057;-55
2022/10/03 07:39:22;;;;;;;5.53;0.77;;;;;;;12.49;79.48;99081.31;4992910;28;19928;-55
2022/10/03 07:42:15;;;;;;;6.00;1.42;;;;;;;12.19;81.12;99065.03;4998153;28;20568;-53
2022/10/03 07:45:06;;;;;;;5.38;1.00;;;;;;;12.23;80.91;99086.63;5000232;28;20588;-54
2022/10/03 07:48:12;;;;;;;8.38;1.20;;;;;;;12.39;81.05;99095.09;4994734;28;20062;-55
2022/10/03 07:51:11;;;;;;;4.05;1.25;;;;;;;12.68;79.78;99097.44;4983354;28;20046;-54
2022/10/03 07:54:13;;;;;;;3.50;1.20;;;;;;;12.67;79.60;99100.19;4992378;28;20045;-53
2022/10/03 07:57:15;;;;;;;5.15;0.77;;;;;;;12.30;80.06;99080.00;4986383;28;20628;-53
2022/10/03 08:00:23;;;;;;;3.97;0.85;;;;;;;12.97;77.90;99096.28;5064413;28;20064;-55
2022/10/03 08:03:50;;;;;;;3.03;0.68;;;;;;;13.75;73.93;99098.44;5094282;27;20039;-53
2022/10/03 08:06:44;;;;;;;3.90;0.80;;;;;;;14.19;71.99;99103.00;5098295;27;20407;-57
2022/10/03 08:09:35;;;;;;;5.22;0.90;;;;;;;13.31;74.57;99108.72;5097212;27;20131;-53
2022/10/03 08:12:40;;;;;;;4.28;0.80;;;;;;;13.41;74.54;99098.34;5091113;27;20039;-57
2022/10/03 08:15:43;;;;;;;5.72;0.82;;;;;;;14.24;72.64;99113.19;5096974;28;20055;-57
2022/10/03 08:18:30;;;;;;;4.40;1.13;;;;;;;13.89;72.13;99110.53;5096722;27;20043;-55
2022/10/03 08:21:38;;;;;;;5.43;1.10;;;;;;;15.17;73.28;99120.81;5101476;27;20035;-60
2022/10/03 08:24:41;;;;;;;3.22;1.00;;;;;;;14.95;67.95;99104.09;5092538;28;20028;-56
2022/10/03 08:28:08;;;;;;;7.85;0.98;;;;;;;13.90;72.47;99120.13;5110327;27;20043;-51
2022/10/03 08:31:29;;;;;;;3.63;0.90;;;;;;;13.76;72.81;99113.28;5048680;28;20045;-54
2022/10/03 08:34:42;;;;;;;11.25;0.90;;;;;;;14.54;69.75;99120.47;5060067;28;20048;-56
2022/10/03 08:38:03;;;;;;;2.90;0.68;;;;;;;15.72;64.97;99133.00;5068959;28;20052;-52
2022/10/03 08:41:19;;;;;;;5.20;0.90;;;;;;;14.98;66.75;99124.13;5056120;28;20649;-52
2022/10/03 08:44:12;;;;;;;8.75;1.10;;;;;;;14.83;67.69;99120.91;5053247;28;20044;-52
2022/10/03 08:47:15;;;;;;;7.60;0.85;;;;;;;14.68;67.65;99122.94;5052063;28;20163;-52
2022/10/03 08:50:17;;;;;;;5.45;0.88;;;;;;;14.84;67.53;99119.94;5056237;28;20045;-50
2022/10/03 08:53:55;;;;;;;5.45;0.80;;;;;;;14.96;66.75;99116.31;5051661;28;20659;-54
2022/10/03 08:57:17;;;;;;;4.63;0.98;;;;;;;15.97;63.07;99117.72;4992897;28;20417;-58
2022/10/03 09:00:04;;;;;;;5.15;0.68;;;;;;;14.77;64.42;99123.06;5016984;28;20128;-52
2022/10/03 09:03:11;;;;;;;7.97;0.93;;;;;;;14.89;65.44;99138.88;5014206;28;20045;-54
2022/10/03 09:06:23;;;;;;;3.72;0.80;;;;;;;15.09;63.25;99133.78;4996606;28;20475;-51
2022/10/03 09:09:41;;;;;;;6.13;0.80;;;;;;;14.70;64.49;99137.69;5041114;28;20495;-53
2022/10/03 09:12:41;;;;;;;7.72;0.80;;;;;;;14.38;68.31;99138.44;5038141;28;20044;-54
2022/10/03 09:16:03;;;;;;;4.35;0.60;;;;;;;14.09;67.40;99142.41;5046255;28;20061;-55
2022/10/03 09:19:29;;;;;;;2.58;0.90;;;;;;;13.70;68.65;99136.59;5053752;28;20176;-52
2022/10/03 09:22:51;;;;;;;2.78;0.70;;;;;;;13.94;68.49;99147.06;5017158;28;20113;-56
2022/10/03 09:25:57;;;;;;;5.20;0.90;;;;;;;13.31;69.62;99148.19;5012910;28;20113;-53
2022/10/03 09:28:44;;;;;;;2.70;0.60;;;;;;;13.24;71.26;99147.78;4995037;28;20670;-53
2022/10/03 09:31:31;;;;;;;3.60;0.90;;;;;;;12.98;73.28;99157.59;5032571;28;20068;-50
2022/10/03 09:34:40;;;;;;;3.08;0.55;;;;;;;12.26;79.36;99155.56;5045357;28;20124;-50
2022/10/03 09:37:47;;;;;;;3.92;0.80;;;;;;;12.44;77.80;99148.19;5023931;28;20084;-56
2022/10/03 09:41:18;;;;;;;2.70;0.80;;;;;;;12.96;74.62;99149.00;5038759;28;20112;-56
2022/10/03 09:44:23;;;;;;;3.30;0.60;;;;;;;13.21;71.67;99142.75;5036985;28;20076;-51
2022/10/03 09:47:29;;;;;;;3.30;0.55;;;;;;;13.32;71.45;99146.41;5049055;28;20060;-52
2022/10/03 09:50:50;;;;;;;2.70;0.60;;;;;;;14.02;68.72;99142.03;5041470;28;20373;-52
2022/10/03 09:53:57;;;;;;;3.08;0.40;;;;;;;14.41;66.85;99144.31;5091910;27;20557;-53
2022/10/03 09:57:13;;;;;;;2.35;0.43;;;;;;;14.96;64.48;99152.41;5102355;27;20156;-52
2022/10/03 10:00:15;;;;;;;2.25;0.30;;;;;;;17.09;56.51;99149.50;5095461;28;20109;-51
2022/10/03 10:03:05;;;;;;;11.10;0.70;;;;;;;16.30;59.49;99143.19;5104348;27;20032;-57
2022/10/03 10:06:06;;;;;;;1.80;0.52;;;;;;;16.28;58.77;99147.75;5103326;27;20048;-56
2022/10/03 10:09:10;;;;;;;4.07;0.60;;;;;;;15.34;62.63;99148.41;5103015;27;20032;-54
2022/10/03 10:12:25;;;;;;;1.25;0.40;;;;;;;15.63;60.20;99137.22;5098366;28;20384;-55
2022/10/03 10:15:29;;;;;;;2.85;0.47;;;;;;;15.97;59.32;99145.91;5097903;28;20040;-57
2022/10/03 10:18:47;;;;;;;3.60;0.60;;;;;;;15.79;58.35;99130.69;5098170;27;20036;-56
2022/10/03 10:21:57;;;;;;;1.63;0.40;;;;;;;14.76;60.85;99145.13;5117319;27;20493;-55
2022/10/03 10:25:15;;;;;;;4.72;0.60;;;;;;;14.44;63.03;99142.41;5107552;27;20042;-52
2022/10/03 10:28:36;;;;;;;2.97;0.40;;;;;;;14.69;60.93;99133.38;5019118;28;20197;-55
2022/10/03 10:31:48;;;;;;;1.33;0.60;;;;;;;14.59;61.69;99146.44;5045686;28;20076;-52
2022/10/03 10:35:02;;;;;;;1.85;0.60;;;;;;;14.45;62.45;99141.44;5067897;28;20049;-56
2022/10/03 10:38:24;;;;;;;2.08;0.50;;;;;;;14.04;63.57;99139.28;5068962;28;20056;-53
2022/10/03 10:41:34;;;;;;;1.30;0.35;;;;;;;14.25;63.31;99143.84;5054369;28;20150;-56
2022/10/03 10:44:36;;;;;;;1.77;0.52;;;;;;;14.88;61.26;99145.94;5055077;28;20048;-52
2022/10/03 10:47:59;;;;;;;2.88;0.55;;;;;;;14.79;61.38;99115.00;5076774;28;20044;-56
2022/10/03 10:51:10;;;;;;;1.45;0.22;;;;;;;14.72;62.22;99129.66;5077074;28;20048;-54
2022/10/03 10:54:10;;;;;;;;;;;;;;;14.72;61.07;99133.13;5073614;28;20423;-52
2022/10/03 10:57:15;;;;;;;2.25;0.22;;;;;;;14.26;62.11;99130.53;5072433;28;20344;-53
2022/10/03 11:00:14;;;;;;;0.95;0.25;;;;;;;14.19;62.57;99126.72;5067400;28;20087;-56
2022/10/03 11:03:21;;;;;;;3.42;0.50;;;;;;;14.09;63.13;99145.03;5038865;28;20590;-54
2022/10/03 11:06:35;;;;;;;0.85;0.20;;;;;;;14.92;59.58;99146.53;5117452;27;21012;-55
2022/10/03 11:09:48;;;;;;;1.42;0.30;;;;;;;16.30;56.82;99129.97;5110760;27;20042;-61
2022/10/03 11:12:55;;;;;;;2.63;0.22;;;;;;;17.43;52.65;99118.31;5106481;27;20119;-53
2022/10/03 11:15:48;;;;;;;0.80;0.20;;;;;;;17.13;52.33;99128.91;5094001;28;20119;-56
2022/10/03 11:18:51;;;;;;;2.20;0.30;;;;;;;15.93;56.27;99137.41;5105422;28;20485;-56
2022/10/03 11:21:35;;;;;;;2.80;0.30;;;;;;;16.49;53.87;99140.63;5108179;28;20047;-53
2022/10/03 11:24:23;;;;;;;1.92;0.20;;;;;;;17.18;52.51;99137.28;5105257;27;20088;-53
2022/10/03 11:27:17;;;;;;;0.93;0.20;;;;;;;17.43;51.54;99113.03;5091000;28;20073;-53
2022/10/03 11:30:17;;;;;;;1.55;0.20;;;;;;;18.22;50.42;99136.66;5094909;27;20185;-54
2022/10/03 11:33:49;;;;;;;0.95;0.20;;;;;;;17.83;50.71;99116.41;5100899;27;20036;-54
2022/10/03 11:36:42;;;;;;;2.25;0.32;;;;;;;17.91;49.12;99108.56;5046603;28;20135;-56
2022/10/03 11:39:41;;;;;;;3.42;0.30;;;;;;;17.65;49.93;99108.38;5049259;28;20045;-49
2022/10/03 11:42:27;;;;;;;1.27;0.30;;;;;;;17.98;48.90;99119.44;5048973;28;20068;-54
2022/10/03 11:45:25;;;;;;;2.97;0.65;;;;;;;17.26;51.08;99118.03;5044618;28;20033;-52
2022/10/03 11:48:13;;;;;;;0.77;0.40;;;;;;;16.79;53.21;99122.19;5008901;28;20072;-54
2022/10/03 11:51:14;;;;;;;2.22;0.43;;;;;;;17.16;51.35;99119.84;5050391;28;20051;-57
2022/10/03 11:54:10;;;;;;;0.68;0.28;;;;;;;17.17;51.51;99100.34;5054774;28;20119;-54
2022/10/03 11:57:27;;;;;;;2.03;0.50;;;;;;;16.40;52.97;99093.84;5054215;28;20045;-55
2022/10/03 12:00:22;;;;;;;1.63;0.60;;;;;;;16.94;52.98;99121.78;5026322;28;20076;-56
2022/10/03 12:03:22;;;;;;;3.08;0.60;;;;;;;16.18;54.47;99119.50;5050453;28;20150;-57
2022/10/03 12:09:38;;;;;;;1.90;0.70;;;;;;;15.39;57.65;99121.69;5048096;28;20106;-56
2022/10/03 12:12:44;;;;;;;3.60;0.47;;;;;;;15.10;58.70;99140.72;5073801;27;20495;-55
2022/10/03 12:15:42;;;;;;;4.43;0.77;;;;;;;15.13;57.79;99143.97;5101372;27;20685;-55
2022/10/03 12:18:30;;;;;;;1.10;0.50;;;;;;;14.57;59.92;99139.63;5106071;28;20139;-54
2022/10/03 12:21:28;;;;;;;2.25;0.65;;;;;;;14.41;61.30;99140.84;5108764;27;20424;-55
2022/10/03 12:24:28;;;;;;;1.55;0.32;;;;;;;14.20;61.75;99141.56;5102300;27;20754;-57
2022/10/03 12:27:55;;;;;;;1.08;0.30;;;;;;;14.53;61.88;99141.66;5086544;28;20111;-51
2022/10/03 12:31:14;;;;;;;2.03;0.40;;;;;;;14.58;62.03;99147.41;5095329;28;20035;-56
2022/10/03 12:34:23;;;;;;;3.53;0.40;;;;;;;15.73;57.05;99141.75;5073225;27;20039;-54
2022/10/03 12:37:14;;;;;;;0.70;0.30;;;;;;;15.69;57.29;99138.53;5096042;27;20128;-52
2022/10/03 12:40:12;;;;;;;2.15;0.35;;;;;;;16.44;55.40;99120.81;5107054;28;20424;-53
2022/10/03 12:43:17;;;;;;;2.20;0.63;;;;;;;16.74;54.12;99135.78;5111899;28;20042;-54
2022/10/03 12:46:13;;;;;;;1.05;0.30;;;;;;;16.92;51.64;99131.66;5095627;28;20054;-56
2022/10/03 12:49:06;;;;;;;3.08;0.73;;;;;;;16.53;52.26;99116.53;5099136;28;20036;-56
2022/10/03 12:51:57;;;;;;;1.50;0.22;;;;;;;16.90;51.50;99115.91;5107287;28;20118;-52
2022/10/03 12:54:47;;;;;;;3.63;0.50;;;;;;;15.81;55.00;99135.81;5106987;28;20054;-54
2022/10/03 12:57:34;;;;;;;2.30;0.50;;;;;;;16.22;54.04;99134.09;5114797;28;20033;-52
2022/10/03 13:00:34;;;;;;;2.08;0.55;;;;;;;15.20;56.75;99136.38;5107586;28;20181;-58
2022/10/03 13:03:55;;;;;;;2.90;0.82;;;;;;;14.44;59.11;99121.31;5103799;28;20043;-55
2022/10/03 13:06:44;;;;;;;;;;;;;;;14.03;60.47;99145.50;5104106;28;20438;-53
2022/10/03 13:09:37;;;;;;;3.05;0.50;;;;;;;13.87;62.28;99159.84;5099058;28;19922;-51
2022/10/03 13:12:44;;;;;;;3.40;0.52;;;;;;;13.86;64.09;99157.31;5111536;28;20036;-52
2022/10/03 13:16:33;;;;;;;2.08;0.57;;;;;;;13.39;65.87;99147.59;5109425;28;20035;-50
2022/10/03 13:19:23;;;;;;;1.13;0.47;;;;;;;13.20;67.23;99151.63;5036449;28;20040;-53
2022/10/03 13:22:19;;;;;;;2.33;0.63;;;;;;;13.06;68.59;99134.19;5042073;28;20135;-56
2022/10/03 13:25:17;;;;;;;2.97;0.57;;;;;;;13.16;66.57;99142.25;5029031;28;20074;-51
2022/10/03 13:28:30;;;;;;;1.17;0.40;;;;;;;13.28;66.38;99144.00;5045359;28;21272;-57
2022/10/03 13:31:25;;;;;;;3.97;0.73;;;;;;;13.43;65.42;99141.19;5036619;28;20082;-50
2022/10/03 13:34:18;;;;;;;2.30;0.52;;;;;;;13.56;64.68;99138.50;5065371;28;20084;-52
2022/10/03 13:37:11;;;;;;;1.00;0.47;;;;;;;13.92;63.67;99144.53;5048485;28;20076;-49
2022/10/03 13:40:06;;;;;;;2.58;0.70;;;;;;;14.16;63.00;99140.13;5039014;28;20454;-49
2022/10/03 13:42:52;;;;;;;1.00;0.30;;;;;;;14.35;61.71;99138.69;5034826;28;20128;-52
2022/10/03 13:45:47;;;;;;;2.95;0.50;;;;;;;14.28;59.90;99128.63;5038401;28;20033;-52
2022/10/03 13:48:38;;;;;;;2.45;0.40;;;;;;;14.45;58.53;99130.88;5025709;28;20056;-55
2022/10/03 13:51:48;;;;;;;3.30;0.40;;;;;;;15.95;54.60;99139.91;4986487;28;20065;-57
2022/10/03 13:55:01;;;;;;;1.63;0.52;;;;;;;16.56;51.79;99125.03;5066473;28;20174;-52
2022/10/03 13:58:11;;;;;;;;;;;;;;;15.67;52.54;99129.09;5077810;28;20048;-51
2022/10/03 14:01:20;;;;;;;1.50;0.45;;;;;;;15.68;53.82;99128.09;5069859;28;19920;-53
2022/10/03 14:04:07;;;;;;;1.70;0.52;;;;;;;15.47;54.09;99126.31;5056382;28;20051;-56
2022/10/03 14:07:17;;;;;;;3.55;0.50;;;;;;;15.12;55.21;99122.97;5079636;28;20060;-51
2022/10/03 14:10:20;;;;;;;1.42;0.28;;;;;;;14.53;57.05;99125.84;5083369;28;20190;-52
2022/10/03 14:13:28;;;;;;;1.75;0.43;;;;;;;14.16;56.73;99117.28;5068358;28;20565;-53
2022/10/03 14:16:32;;;;;;;1.25;0.40;;;;;;;14.60;56.60;99120.94;5069502;28;20048;-54
2022/10/03 14:19:32;;;;;;;2.20;0.63;;;;;;;15.82;53.40;99124.28;5052585;28;20094;-57
2022/10/03 14:22:33;;;;;;;1.58;0.60;;;;;;;16.42;53.02;99123.59;5060112;28;20105;-53
2022/10/03 14:25:26;;;;;;;1.13;0.40;;;;;;;16.08;54.21;99129.16;5080077;28;20057;-59
2022/10/03 14:28:38;;;;;;;0.50;0.20;;;;;;;15.96;54.99;99136.34;5070814;28;20044;-58
2022/10/03 14:31:34;;;;;;;0.77;0.30;;;;;;;15.84;54.71;99125.84;5078015;28;20067;-56
2022/10/03 14:34:32;;;;;;;1.13;0.20;;;;;;;16.03;55.50;99132.22;5120858;27;20051;-58
2022/10/03 14:37:31;;;;;;;1.10;0.30;;;;;;;15.74;55.81;99135.50;5096254;28;20051;-51
2022/10/03 14:40:44;;;;;;;1.02;0.40;;;;;;;15.76;56.14;99125.66;5104055;27;20522;-54
2022/10/03 14:43:49;;;;;;;0.93;0.20;;;;;;;15.61;56.80;99141.81;5104411;27;20069;-54